createdAt,value
2023-03-30T00:00:20.073Z,100733.84
2023-03-30T00:03:25.381Z,100730.31
2023-03-30T00:06:28.347Z,100725.81
2023-03-30T00:09:31.197Z,100720.38
2023-03-30T00:12:34.536Z,100717.34
2023-03-30T00:15:37.243Z,100716.69
2023-03-30T00:18:40.552Z,100716.06
2023-03-30T00:21:43.242Z,100717.78
2023-03-30T00:24:46.595Z,100722.81
2023-03-30T00:27:49.172Z,100719.13
2023-03-30T00:30:53.609Z,100722.53
2023-03-30T00:33:56.623Z,100713.00
2023-03-30T00:36:59.840Z,100713.78
2023-03-30T00:40:03.121Z,100712.63
2023-03-30T00:43:08.177Z,100703.41
2023-03-30T00:46:11.261Z,100699.97
2023-03-30T00:49:14.421Z,100699.69
2023-03-30T00:52:19.998Z,100691.13
2023-03-30T00:55:24.853Z,100688.75
2023-03-30T00:58:28.601Z,100691.44
2023-03-30T01:01:39.553Z,100685.72
2023-03-30T01:04:42.304Z,100687.53
2023-03-30T01:07:46.830Z,100679.53
2023-03-30T01:10:49.608Z,100675.94
2023-03-30T01:13:55.803Z,100673.41
2023-03-30T01:17:04.561Z,100656.94
2023-03-30T01:20:13.251Z,100663.91
2023-03-30T01:23:27.860Z,100651.91
2023-03-30T01:27:00.629Z,100653.75
2023-03-30T01:30:09.273Z,100648.28
2023-03-30T01:33:30.282Z,100641.19
2023-03-30T01:36:32.827Z,100629.84
2023-03-30T01:39:35.751Z,100633.72
2023-03-30T01:42:38.274Z,100627.94
2023-03-30T01:45:46.750Z,100635.09
2023-03-30T01:48:55.420Z,100632.44
2023-03-30T01:52:16.607Z,100638.75
2023-03-30T01:55:39.515Z,100638.81
2023-03-30T01:58:48.085Z,100637.88
2023-03-30T02:01:54.879Z,100631.03
2023-03-30T02:04:59.754Z,100634.09
2023-03-30T02:08:08.931Z,100632.03
2023-03-30T02:11:12.683Z,100621.88
2023-03-30T02:14:18.045Z,100627.59
2023-03-30T02:17:23.537Z,100623.50
2023-03-30T02:20:27.646Z,100617.91
2023-03-30T02:23:34.070Z,100607.19
2023-03-30T02:26:37.246Z,100600.50
2023-03-30T02:29:42.216Z,100609.47
2023-03-30T02:32:49.013Z,100606.00
2023-03-30T02:36:14.686Z,100600.13
2023-03-30T02:39:20.188Z,100613.78
2023-03-30T02:42:43.679Z,100616.44
2023-03-30T02:45:52.542Z,100599.59
2023-03-30T02:48:55.183Z,100615.88
2023-03-30T02:52:07.666Z,100619.63
2023-03-30T02:55:14.426Z,100620.66
2023-03-30T02:58:19.424Z,100603.53
2023-03-30T03:01:30.134Z,100598.78
2023-03-30T03:04:34.408Z,100606.09
2023-03-30T03:07:39.453Z,100615.50
2023-03-30T03:10:43.694Z,100610.94
2023-03-30T03:13:46.753Z,100621.50
2023-03-30T03:16:49.886Z,100613.44
2023-03-30T03:19:52.638Z,100600.41
2023-03-30T03:22:55.509Z,100606.31
2023-03-30T03:25:57.913Z,100615.47
2023-03-30T03:29:00.791Z,100615.06
2023-03-30T03:32:03.645Z,100618.81
2023-03-30T03:35:06.981Z,100628.56
2023-03-30T03:38:09.923Z,100629.19
2023-03-30T03:41:13.164Z,100621.22
2023-03-30T03:44:15.641Z,100627.34
2023-03-30T03:47:18.735Z,100632.69
2023-03-30T03:50:22.125Z,100623.19
2023-03-30T03:53:26.523Z,100630.13
2023-03-30T03:56:29.349Z,100622.56
2023-03-30T03:59:32.030Z,100614.28
2023-03-30T04:02:34.973Z,100608.69
2023-03-30T04:05:38.116Z,100602.81
2023-03-30T04:08:41.211Z,100600.50
2023-03-30T04:11:44.507Z,100596.22
2023-03-30T04:14:47.145Z,100597.66
2023-03-30T04:17:50.407Z,100588.41
2023-03-30T04:20:53.168Z,100580.75
2023-03-30T04:23:57.141Z,100586.88
2023-03-30T04:26:59.980Z,100580.00
2023-03-30T04:30:02.756Z,100575.09
2023-03-30T04:33:05.748Z,100582.38
2023-03-30T04:36:08.984Z,100591.97
2023-03-30T04:39:12.344Z,100584.56
2023-03-30T04:42:16.360Z,100591.16
2023-03-30T04:45:19.752Z,100596.41
2023-03-30T04:48:23.889Z,100588.56
2023-03-30T04:51:27.380Z,100585.69
2023-03-30T04:54:33.221Z,100578.31
2023-03-30T04:57:36.638Z,100579.03
2023-03-30T05:00:40.124Z,100580.53
2023-03-30T05:03:44.219Z,100580.94
2023-03-30T05:06:50.490Z,100575.03
2023-03-30T05:09:53.891Z,100574.88
2023-03-30T05:12:57.294Z,100573.38
2023-03-30T05:16:00.647Z,100577.97
2023-03-30T05:19:04.450Z,100584.41
2023-03-30T05:22:07.437Z,100587.06
2023-03-30T05:25:11.645Z,100591.56
2023-03-30T05:28:14.508Z,100586.75
2023-03-30T05:31:17.744Z,100593.25
2023-03-30T05:34:21.516Z,100588.34
2023-03-30T05:37:25.507Z,100585.53
2023-03-30T05:40:28.773Z,100582.81
2023-03-30T05:43:32.150Z,100580.66
2023-03-30T05:46:35.585Z,100571.16
2023-03-30T05:49:38.671Z,100571.28
2023-03-30T05:52:41.805Z,100577.28
2023-03-30T05:55:48.585Z,100579.66
2023-03-30T05:58:52.568Z,100574.38
2023-03-30T06:01:56.749Z,100580.47
2023-03-30T06:05:02.840Z,100581.50
2023-03-30T06:08:06.695Z,100586.22
2023-03-30T06:11:09.651Z,100598.44
2023-03-30T06:14:12.608Z,100591.25
2023-03-30T06:17:16.825Z,100581.00
2023-03-30T06:20:22.102Z,100572.53
2023-03-30T06:23:25.476Z,100573.53
2023-03-30T06:26:32.734Z,100569.19
2023-03-30T06:29:36.133Z,100570.62
2023-03-30T06:32:39.395Z,100562.87
2023-03-30T06:35:45.423Z,100555.16
2023-03-30T06:38:49.473Z,100552.53
2023-03-30T06:41:53.757Z,100553.06
2023-03-30T06:44:56.861Z,100548.87
2023-03-30T06:48:00.001Z,100545.94
2023-03-30T06:51:04.548Z,100532.09
2023-03-30T06:54:07.593Z,100548.25
2023-03-30T06:57:11.078Z,100554.41
2023-03-30T07:00:16.531Z,100561.84
2023-03-30T07:03:20.324Z,100554.94
2023-03-30T07:06:23.522Z,100549.66
2023-03-30T07:09:27.237Z,100552.34
2023-03-30T07:12:30.396Z,100547.22
2023-03-30T07:15:33.115Z,100545.63
2023-03-30T07:18:36.869Z,100547.53
2023-03-30T07:21:39.609Z,100550.13
2023-03-30T07:24:42.808Z,100550.56
2023-03-30T07:27:46.002Z,100549.59
2023-03-30T07:30:48.858Z,100538.41
2023-03-30T07:33:52.605Z,100552.28
2023-03-30T07:36:56.402Z,100556.91
2023-03-30T07:40:00.794Z,100552.97
2023-03-30T07:43:03.628Z,100548.78
2023-03-30T07:46:06.770Z,100542.28
2023-03-30T07:49:10.508Z,100551.91
2023-03-30T07:52:14.196Z,100561.84
2023-03-30T07:55:19.568Z,100569.59
2023-03-30T07:58:22.963Z,100570.50
2023-03-30T08:01:26.348Z,100565.84
2023-03-30T08:04:29.487Z,100562.75
2023-03-30T08:07:35.055Z,100555.97
2023-03-30T08:10:37.820Z,100556.19
2023-03-30T08:13:40.867Z,100554.28
2023-03-30T08:16:43.986Z,100555.97
2023-03-30T08:19:48.845Z,100559.50
2023-03-30T08:22:52.041Z,100551.44
2023-03-30T08:25:59.913Z,100547.28
2023-03-30T08:29:02.714Z,100546.31
2023-03-30T08:32:05.963Z,100547.03
2023-03-30T08:35:09.702Z,100545.37
2023-03-30T08:38:18.123Z,100538.22
2023-03-30T08:41:24.379Z,100541.13
2023-03-30T08:44:33.650Z,100544.78
2023-03-30T08:47:42.917Z,100536.66
2023-03-30T08:50:54.770Z,100538.84
2023-03-30T08:54:11.379Z,100544.78
2023-03-30T08:57:32.800Z,100539.97
2023-03-30T09:00:37.762Z,100539.56
2023-03-30T09:03:43.515Z,100526.44
2023-03-30T09:06:57.972Z,100540.50
2023-03-30T09:10:01.556Z,100544.06
2023-03-30T09:13:06.936Z,100528.59
2023-03-30T09:16:29.085Z,100514.28
2023-03-30T09:19:36.748Z,100519.59
2023-03-30T09:22:41.577Z,100515.09
2023-03-30T09:25:51.484Z,100524.75
2023-03-30T09:29:04.146Z,100515.66
2023-03-30T09:32:10.579Z,100505.72
2023-03-30T09:35:22.547Z,100495.34
2023-03-30T09:38:25.847Z,100501.66
2023-03-30T09:41:42.833Z,100496.56
2023-03-30T09:44:50.673Z,100484.69
2023-03-30T09:47:54.388Z,100475.16
2023-03-30T09:50:57.377Z,100464.88
2023-03-30T09:54:03.966Z,100472.62
2023-03-30T09:57:07.248Z,100467.81
2023-03-30T10:00:25.799Z,100471.13
2023-03-30T10:03:30.259Z,100471.56
2023-03-30T10:06:38.150Z,100466.88
2023-03-30T10:09:44.464Z,100463.87
2023-03-30T10:12:50.327Z,100457.09
2023-03-30T10:15:54.212Z,100460.72
2023-03-30T10:19:00.931Z,100457.03
2023-03-30T10:22:07.292Z,100468.91
2023-03-30T10:25:19.489Z,100459.22
2023-03-30T10:28:29.495Z,100448.69
2023-03-30T10:31:37.370Z,100444.13
2023-03-30T10:34:42.251Z,100446.84
2023-03-30T10:37:47.266Z,100430.97
2023-03-30T10:40:51.997Z,100421.00
2023-03-30T10:43:55.155Z,100414.56
2023-03-30T10:47:08.751Z,100413.03
2023-03-30T10:50:26.330Z,100411.75
2023-03-30T10:53:44.271Z,100417.91
2023-03-30T10:56:58.013Z,100410.22
2023-03-30T11:00:17.998Z,100398.91
2023-03-30T11:03:29.851Z,100383.63
2023-03-30T11:06:33.713Z,100387.56
2023-03-30T11:09:39.880Z,100390.00
2023-03-30T11:12:46.066Z,100391.69
2023-03-30T11:16:01.051Z,100395.63
2023-03-30T11:19:06.372Z,100383.37
2023-03-30T11:22:15.441Z,100390.22
2023-03-30T11:25:27.037Z,100380.66
2023-03-30T11:28:47.777Z,100381.44
2023-03-30T11:31:57.569Z,100386.53
2023-03-30T11:35:00.714Z,100388.56
2023-03-30T11:38:16.468Z,100371.78
2023-03-30T11:41:24.123Z,100369.91
2023-03-30T11:44:28.300Z,100369.91
2023-03-30T11:47:50.384Z,100353.47
2023-03-30T11:51:01.206Z,100353.31
2023-03-30T11:54:19.799Z,100349.44
2023-03-30T11:57:34.810Z,100351.50
2023-03-30T12:00:58.617Z,100341.16
2023-03-30T12:04:15.943Z,100325.84
2023-03-30T12:07:22.777Z,100328.63
2023-03-30T12:10:40.170Z,100319.75
2023-03-30T12:13:51.121Z,100312.09
2023-03-30T12:17:01.760Z,100302.28
2023-03-30T12:20:10.150Z,100303.38
2023-03-30T12:23:41.342Z,100286.81
2023-03-30T12:26:55.010Z,100280.59
2023-03-30T12:30:15.988Z,100270.09
2023-03-30T12:33:22.090Z,100265.56
2023-03-30T12:36:46.074Z,100263.19
2023-03-30T12:39:56.641Z,100264.34
2023-03-30T12:43:05.429Z,100259.62
2023-03-30T12:46:20.614Z,100253.53
2023-03-30T12:49:35.473Z,100244.59
2023-03-30T12:52:42.251Z,100240.22
2023-03-30T12:55:48.842Z,100232.38
2023-03-30T12:59:00.519Z,100228.53
2023-03-30T13:02:21.766Z,100220.84
2023-03-30T13:05:27.860Z,100216.91
2023-03-30T13:08:31.590Z,100216.47
2023-03-30T13:12:06.151Z,100216.69
2023-03-30T13:15:32.163Z,100205.78
2023-03-30T13:18:40.679Z,100212.19
2023-03-30T13:21:48.159Z,100208.62
2023-03-30T13:25:13.916Z,100204.81
2023-03-30T13:28:32.218Z,100207.25
2023-03-30T13:31:44.662Z,100203.25
2023-03-30T13:35:07.741Z,100204.91
2023-03-30T13:38:24.939Z,100196.50
2023-03-30T13:41:29.068Z,100194.13
2023-03-30T13:44:39.840Z,100195.91
2023-03-30T13:47:47.653Z,100193.19
2023-03-30T13:50:58.991Z,100184.47
2023-03-30T13:54:04.106Z,100177.00
2023-03-30T13:57:26.193Z,100179.28
2023-03-30T14:00:29.317Z,100166.97
2023-03-30T14:03:42.501Z,100159.91
2023-03-30T14:06:47.391Z,100154.12
2023-03-30T14:10:22.814Z,100146.75
2023-03-30T14:13:25.969Z,100140.22
2023-03-30T14:16:32.611Z,100130.47
2023-03-30T14:19:43.119Z,100121.31
2023-03-30T14:22:46.869Z,100122.44
2023-03-30T14:25:53.850Z,100122.19
2023-03-30T14:28:57.719Z,100119.47
2023-03-30T14:32:08.330Z,100112.44
2023-03-30T14:35:16.624Z,100098.31
2023-03-30T14:38:24.350Z,100085.41
2023-03-30T14:41:32.341Z,100077.66
2023-03-30T14:44:39.254Z,100063.25
2023-03-30T14:47:42.710Z,100057.16
2023-03-30T14:50:45.669Z,100051.16
2023-03-30T14:53:48.862Z,100046.03
2023-03-30T14:56:58.075Z,100044.00
2023-03-30T15:00:02.464Z,100034.69
2023-03-30T15:03:05.722Z,100031.88
2023-03-30T15:06:09.062Z,100028.34
2023-03-30T15:09:25.993Z,100020.63
2023-03-30T15:12:36.905Z,100019.41
2023-03-30T15:15:40.101Z,100007.91
2023-03-30T15:18:42.847Z,100006.63
2023-03-30T15:21:45.344Z,99997.28
2023-03-30T15:24:47.923Z,99994.19
2023-03-30T15:27:54.922Z,99995.00
2023-03-30T15:30:59.068Z,99993.53
2023-03-30T15:34:02.091Z,99999.22
2023-03-30T15:37:04.736Z,100000.16
2023-03-30T15:40:26.214Z,100018.97
2023-03-30T15:43:30.637Z,100023.00
2023-03-30T15:46:33.944Z,100030.06
2023-03-30T15:49:40.745Z,100038.84
2023-03-30T15:52:44.922Z,100047.16
2023-03-30T15:55:51.857Z,100052.28
2023-03-30T15:58:54.605Z,100060.34
2023-03-30T16:02:02.606Z,100053.31
2023-03-30T16:05:07.706Z,100032.34
2023-03-30T16:08:10.261Z,100024.94
2023-03-30T16:11:15.505Z,100018.28
2023-03-30T16:14:20.815Z,100016.59
2023-03-30T16:17:23.904Z,100021.25
2023-03-30T16:20:27.715Z,100018.19
2023-03-30T16:23:29.773Z,100017.84
2023-03-30T16:26:31.981Z,100013.87
2023-03-30T16:29:33.964Z,99990.59
2023-03-30T16:32:36.124Z,99991.28
2023-03-30T16:35:38.122Z,99972.31
2023-03-30T16:38:40.050Z,99961.81
2023-03-30T16:41:43.126Z,99976.28
2023-03-30T16:44:45.110Z,99984.81
2023-03-30T16:47:47.428Z,99992.03
2023-03-30T16:50:50.862Z,100002.44
2023-03-30T16:53:52.856Z,99996.75
2023-03-30T16:56:54.868Z,100004.41
2023-03-30T16:59:56.864Z,99995.53
2023-03-30T17:02:59.018Z,100001.69
2023-03-30T17:06:01.280Z,99999.63
2023-03-30T17:09:03.213Z,100003.06
2023-03-30T17:12:05.289Z,99989.22
2023-03-30T17:15:07.788Z,99983.09
2023-03-30T17:18:13.390Z,99983.78
2023-03-30T17:21:18.169Z,99973.34
2023-03-30T17:24:20.279Z,99973.44
2023-03-30T17:27:22.163Z,99979.03
2023-03-30T17:30:30.993Z,99983.44
2023-03-30T17:33:34.205Z,99982.16
2023-03-30T17:36:36.092Z,99969.59
2023-03-30T17:39:37.930Z,99962.22
2023-03-30T17:42:39.906Z,99960.22
2023-03-30T17:45:42.193Z,99958.06
2023-03-30T17:48:44.141Z,99946.75
2023-03-30T17:51:46.077Z,99937.63
2023-03-30T17:54:47.889Z,99955.69
2023-03-30T17:57:50.501Z,99963.19
2023-03-30T18:00:52.983Z,99955.87
2023-03-30T18:03:54.797Z,99956.22
2023-03-30T18:06:56.760Z,99950.53
2023-03-30T18:09:58.599Z,99949.34
2023-03-30T18:13:00.689Z,99945.78
2023-03-30T18:16:02.707Z,99945.88
2023-03-30T18:19:04.788Z,99945.66
2023-03-30T18:22:06.801Z,99953.63
2023-03-30T18:25:10.879Z,99964.16
2023-03-30T18:28:23.697Z,99976.53
2023-03-30T18:31:25.582Z,100000.41
2023-03-30T18:34:27.478Z,100015.94
2023-03-30T18:37:29.482Z,100023.44
2023-03-30T18:40:33.201Z,100021.66
2023-03-30T18:43:35.850Z,100022.63
2023-03-30T18:46:38.123Z,100017.66
2023-03-30T18:49:40.300Z,100016.69
2023-03-30T18:52:42.516Z,100009.69
2023-03-30T18:55:45.723Z,100002.44
2023-03-30T18:58:47.809Z,99999.94
2023-03-30T19:01:51.323Z,99987.97
2023-03-30T19:04:55.807Z,99981.19
2023-03-30T19:07:57.972Z,99993.75
2023-03-30T19:11:00.005Z,99970.97
2023-03-30T19:14:03.542Z,99963.50
2023-03-30T19:17:05.653Z,99919.22
2023-03-30T19:20:08.176Z,99910.03
2023-03-30T19:23:11.532Z,99936.94
2023-03-30T19:26:13.428Z,99941.56
2023-03-30T19:29:15.439Z,99955.19
2023-03-30T19:32:19.664Z,99951.03
2023-03-30T19:35:21.969Z,99950.31
2023-03-30T19:38:24.106Z,99944.12
2023-03-30T19:41:26.882Z,99937.69
2023-03-30T19:44:28.866Z,99927.13
2023-03-30T19:47:32.033Z,99934.25
2023-03-30T19:50:34.101Z,99941.47
2023-03-30T19:53:37.213Z,99954.03
2023-03-30T19:56:39.240Z,99947.84
2023-03-30T19:59:41.101Z,99940.34
2023-03-30T20:02:44.649Z,99938.09
2023-03-30T20:05:50.662Z,99936.19
2023-03-30T20:08:54.235Z,99928.09
2023-03-30T20:11:57.960Z,99934.00
2023-03-30T20:15:00.715Z,99923.81
2023-03-30T20:18:02.719Z,99932.13
2023-03-30T20:21:04.867Z,99920.62
2023-03-30T20:24:07.204Z,99924.97
2023-03-30T20:27:09.876Z,99927.22
2023-03-30T20:30:12.700Z,99923.28
2023-03-30T20:33:14.774Z,99917.34
2023-03-30T20:36:16.989Z,99905.00
2023-03-30T20:39:22.222Z,99910.19
2023-03-30T20:42:26.260Z,99901.63
2023-03-30T20:45:28.958Z,99905.16
2023-03-30T20:48:40.608Z,99909.22
2023-03-30T20:51:45.133Z,99911.19
2023-03-30T20:54:48.262Z,99912.88
2023-03-30T20:57:50.092Z,99909.69
2023-03-30T21:00:52.305Z,99903.59
2023-03-30T21:03:55.245Z,99905.75
2023-03-30T21:06:57.254Z,99896.06
2023-03-30T21:09:59.131Z,99897.16
2023-03-30T21:13:01.023Z,99884.59
2023-03-30T21:16:04.915Z,99878.94
2023-03-30T21:19:06.906Z,99870.00
2023-03-30T21:22:08.937Z,99844.34
2023-03-30T21:25:12.797Z,99844.09
2023-03-30T21:28:15.141Z,99862.47
2023-03-30T21:31:20.104Z,99859.88
2023-03-30T21:34:22.137Z,99854.19
2023-03-30T21:37:24.025Z,99844.22
2023-03-30T21:40:25.993Z,99830.22
2023-03-30T21:43:29.006Z,99835.34
2023-03-30T21:46:31.293Z,99839.50
2023-03-30T21:49:33.426Z,99857.75
2023-03-30T21:52:35.655Z,99867.34
2023-03-30T21:55:37.640Z,99879.19
2023-03-30T21:58:39.777Z,99874.69
2023-03-30T22:01:42.366Z,99877.78
2023-03-30T22:04:44.769Z,99874.94
2023-03-30T22:07:46.684Z,99881.94
2023-03-30T22:10:55.442Z,99882.84
2023-03-30T22:13:57.756Z,99876.56
2023-03-30T22:16:59.796Z,99882.25
2023-03-30T22:20:01.861Z,99888.81
2023-03-30T22:23:03.947Z,99878.47
2023-03-30T22:26:06.843Z,99880.16
2023-03-30T22:29:09.006Z,99884.41
2023-03-30T22:32:11.284Z,99882.62
2023-03-30T22:35:13.373Z,99881.44
2023-03-30T22:38:16.685Z,99883.22
2023-03-30T22:41:24.258Z,99869.94
2023-03-30T22:44:27.174Z,99869.56
2023-03-30T22:47:29.169Z,99863.63
2023-03-30T22:50:31.784Z,99873.97
2023-03-30T22:53:34.110Z,99873.38
2023-03-30T22:56:36.182Z,99874.94
2023-03-30T22:59:38.302Z,99871.00
2023-03-30T23:02:40.871Z,99868.62
2023-03-30T23:05:42.958Z,99860.66
2023-03-30T23:08:47.647Z,99856.28
2023-03-30T23:11:50.534Z,99855.22
2023-03-30T23:14:52.461Z,99857.59
2023-03-30T23:17:54.671Z,99870.16
2023-03-30T23:20:58.308Z,99867.09
2023-03-30T23:24:02.294Z,99865.91
2023-03-30T23:27:04.549Z,99867.94
2023-03-30T23:30:07.004Z,99859.72
2023-03-30T23:33:09.385Z,99860.69
2023-03-30T23:36:17.337Z,99863.63
2023-03-30T23:39:19.511Z,99875.03
2023-03-30T23:42:22.888Z,99870.53
2023-03-30T23:45:25.029Z,99854.75
2023-03-30T23:48:27.283Z,99856.66
2023-03-30T23:51:29.719Z,99866.47
2023-03-30T23:54:31.949Z,99857.81
2023-03-30T23:57:34.122Z,99858.06
